sensor_id;sensor_type;location;lat;lon;timestamp;temperature;humidity
7762;DHT22;3925;48.636;9.516;2023-05-01T00:02:09;10.40;99.90
7762;DHT22;3925;48.636;9.516;2023-05-01T00:04:38;10.30;99.90
7762;DHT22;3925;48.636;9.516;2023-05-01T00:07:04;10.20;99.90
7762;DHT22;3925;48.636;9.516;2023-05-01T00:09:31;10.20;99.90
7762;DHT22;3925;48.636;9.516;2023-05-01T00:11:58;10.20;99.90
7762;DHT22;3925;48.636;9.516;2023-05-01T00:14:25;10.20;99.90
7762;DHT22;3925;48.636;9.516;2023-05-01T00:16:52;10.20;99.90
7762;DHT22;3925;48.636;9.516;2023-05-01T00:19:18;10.20;99.90
7762;DHT22;3925;48.636;9.516;2023-05-01T00:21:47;10.20;99.90
7762;DHT22;3925;48.636;9.516;2023-05-01T00:24:17;10.30;99.90
7762;DHT22;3925;48.636;9.516;2023-05-01T00:26:43;10.50;99.90
7762;DHT22;3925;48.636;9.516;2023-05-01T00:29:10;10.30;99.90
7762;DHT22;3925;48.636;9.516;2023-05-01T00:31:37;10.30;99.90
7762;DHT22;3925;48.636;9.516;2023-05-01T00:34:06;10.30;99.90
7762;DHT22;3925;48.636;9.516;2023-05-01T00:36:33;10.30;99.90
7762;DHT22;3925;48.636;9.516;2023-05-01T00:39:01;10.20;99.90
7762;DHT22;3925;48.636;9.516;2023-05-01T00:41:28;10.20;99.90
7762;DHT22;3925;48.636;9.516;2023-05-01T00:43:54;10.30;99.90
7762;DHT22;3925;48.636;9.516;2023-05-01T00:46:22;10.20;99.90
7762;DHT22;3925;48.636;9.516;2023-05-01T00:48:51;10.10;99.90
7762;DHT22;3925;48.636;9.516;2023-05-01T00:51:18;10.10;99.90
7762;DHT22;3925;48.636;9.516;2023-05-01T00:53:45;10.00;99.90
7762;DHT22;3925;48.636;9.516;2023-05-01T00:56:14;9.90;99.90
7762;DHT22;3925;48.636;9.516;2023-05-01T00:58:41;9.80;99.90
7762;DHT22;3925;48.636;9.516;2023-05-01T01:01:07;9.80;99.90
7762;DHT22;3925;48.636;9.516;2023-05-01T01:03:35;9.70;99.90
7762;DHT22;3925;48.636;9.516;2023-05-01T01:06:08;9.70;99.90
7762;DHT22;3925;48.636;9.516;2023-05-01T01:08:41;9.60;99.90
7762;DHT22;3925;48.636;9.516;2023-05-01T01:11:16;9.60;99.90
7762;DHT22;3925;48.636;9.516;2023-05-01T01:13:54;9.50;99.90
7762;DHT22;3925;48.636;9.516;2023-05-01T01:16:35;9.50;99.90
7762;DHT22;3925;48.636;9.516;2023-05-01T01:19:17;9.40;99.90
7762;DHT22;3925;48.636;9.516;2023-05-01T01:21:57;9.50;99.90
7762;DHT22;3925;48.636;9.516;2023-05-01T01:24:35;9.40;99.90
7762;DHT22;3925;48.636;9.516;2023-05-01T01:27:41;9.50;99.90
7762;DHT22;3925;48.636;9.516;2023-05-01T01:30:32;9.50;99.90
7762;DHT22;3925;48.636;9.516;2023-05-01T01:33:21;9.50;99.90
7762;DHT22;3925;48.636;9.516;2023-05-01T01:35:54;9.40;99.90
7762;DHT22;3925;48.636;9.516;2023-05-01T01:38:28;9.40;99.90
7762;DHT22;3925;48.636;9.516;2023-05-01T01:40:57;9.50;99.90
7762;DHT22;3925;48.636;9.516;2023-05-01T01:43:32;9.60;99.90
7762;DHT22;3925;48.636;9.516;2023-05-01T01:46:02;9.50;99.90
7762;DHT22;3925;48.636;9.516;2023-05-01T01:48:33;9.50;99.90
7762;DHT22;3925;48.636;9.516;2023-05-01T01:51:06;9.50;99.90
7762;DHT22;3925;48.636;9.516;2023-05-01T01:53:34;9.40;99.90
7762;DHT22;3925;48.636;9.516;2023-05-01T01:56:03;9.40;99.90
7762;DHT22;3925;48.636;9.516;2023-05-01T01:58:31;9.40;99.90
7762;DHT22;3925;48.636;9.516;2023-05-01T02:01:01;9.40;99.90
7762;DHT22;3925;48.636;9.516;2023-05-01T02:03:30;9.40;99.90
7762;DHT22;3925;48.636;9.516;2023-05-01T02:05:57;9.30;99.90
7762;DHT22;3925;48.636;9.516;2023-05-01T02:08:28;9.20;99.90
7762;DHT22;3925;48.636;9.516;2023-05-01T02:10:56;9.30;99.90
7762;DHT22;3925;48.636;9.516;2023-05-01T02:13:28;9.30;99.90
7762;DHT22;3925;48.636;9.516;2023-05-01T02:15:57;9.30;99.90
7762;DHT22;3925;48.636;9.516;2023-05-01T02:18:25;9.30;99.90
7762;DHT22;3925;48.636;9.516;2023-05-01T02:20:54;9.30;99.90
7762;DHT22;3925;48.636;9.516;2023-05-01T02:23:23;9.30;99.90
7762;DHT22;3925;48.636;9.516;2023-05-01T02:25:52;9.40;99.90
7762;DHT22;3925;48.636;9.516;2023-05-01T02:28:23;9.50;99.90
7762;DHT22;3925;48.636;9.516;2023-05-01T02:30:52;9.50;99.90
7762;DHT22;3925;48.636;9.516;2023-05-01T02:33:19;9.50;99.90
7762;DHT22;3925;48.636;9.516;2023-05-01T02:35:46;9.70;99.90
7762;DHT22;3925;48.636;9.516;2023-05-01T02:38:13;9.60;99.90
7762;DHT22;3925;48.636;9.516;2023-05-01T02:40:42;9.60;99.90
7762;DHT22;3925;48.636;9.516;2023-05-01T02:43:14;9.70;99.90
7762;DHT22;3925;48.636;9.516;2023-05-01T02:45:42;9.70;99.90
7762;DHT22;3925;48.636;9.516;2023-05-01T02:48:13;9.70;99.90
7762;DHT22;3925;48.636;9.516;2023-05-01T02:50:43;9.70;99.90
7762;DHT22;3925;48.636;9.516;2023-05-01T02:53:11;9.60;99.90
7762;DHT22;3925;48.636;9.516;2023-05-01T02:55:40;9.50;99.90
7762;DHT22;3925;48.636;9.516;2023-05-01T02:58:11;9.40;99.90
7762;DHT22;3925;48.636;9.516;2023-05-01T03:00:40;9.30;99.90
7762;DHT22;3925;48.636;9.516;2023-05-01T03:03:06;9.40;99.90
7762;DHT22;3925;48.636;9.516;2023-05-01T03:05:33;9.50;99.90
7762;DHT22;3925;48.636;9.516;2023-05-01T03:08:00;9.40;99.90
7762;DHT22;3925;48.636;9.516;2023-05-01T03:10:28;9.50;99.90
7762;DHT22;3925;48.636;9.516;2023-05-01T03:12:55;9.50;99.90
7762;DHT22;3925;48.636;9.516;2023-05-01T03:15:23;9.60;99.90
7762;DHT22;3925;48.636;9.516;2023-05-01T03:17:50;9.70;99.90
7762;DHT22;3925;48.636;9.516;2023-05-01T03:20:17;9.70;99.90
7762;DHT22;3925;48.636;9.516;2023-05-01T03:22:44;9.80;99.90
7762;DHT22;3925;48.636;9.516;2023-05-01T03:25:11;9.90;99.90
7762;DHT22;3925;48.636;9.516;2023-05-01T03:27:38;9.90;99.90
7762;DHT22;3925;48.636;9.516;2023-05-01T03:30:06;9.90;99.90
7762;DHT22;3925;48.636;9.516;2023-05-01T03:32:35;9.90;99.90
7762;DHT22;3925;48.636;9.516;2023-05-01T03:35:03;10.00;99.90
7762;DHT22;3925;48.636;9.516;2023-05-01T03:37:29;10.00;99.90
7762;DHT22;3925;48.636;9.516;2023-05-01T03:39:58;9.90;99.90
7762;DHT22;3925;48.636;9.516;2023-05-01T03:42:25;10.00;99.90
7762;DHT22;3925;48.636;9.516;2023-05-01T03:44:52;10.00;99.90
7762;DHT22;3925;48.636;9.516;2023-05-01T03:47:19;9.90;99.90
7762;DHT22;3925;48.636;9.516;2023-05-01T03:49:47;10.00;99.90
7762;DHT22;3925;48.636;9.516;2023-05-01T03:52:14;10.10;99.90
7762;DHT22;3925;48.636;9.516;2023-05-01T03:54:41;10.10;99.90
7762;DHT22;3925;48.636;9.516;2023-05-01T03:57:08;10.00;99.90
7762;DHT22;3925;48.636;9.516;2023-05-01T03:59:35;10.00;99.90
7762;DHT22;3925;48.636;9.516;2023-05-01T04:02:02;10.00;99.90
7762;DHT22;3925;48.636;9.516;2023-05-01T04:04:29;10.10;99.90
7762;DHT22;3925;48.636;9.516;2023-05-01T04:06:58;10.10;99.90
7762;DHT22;3925;48.636;9.516;2023-05-01T04:09:24;10.10;99.90
7762;DHT22;3925;48.636;9.516;2023-05-01T04:11:51;10.10;99.90
7762;DHT22;3925;48.636;9.516;2023-05-01T04:14:18;10.10;99.90
7762;DHT22;3925;48.636;9.516;2023-05-01T04:16:45;10.20;99.90
7762;DHT22;3925;48.636;9.516;2023-05-01T04:19:12;10.20;99.90
7762;DHT22;3925;48.636;9.516;2023-05-01T04:21:39;10.30;99.90
7762;DHT22;3925;48.636;9.516;2023-05-01T04:24:07;10.30;99.90
7762;DHT22;3925;48.636;9.516;2023-05-01T04:26:34;10.20;99.90
7762;DHT22;3925;48.636;9.516;2023-05-01T04:29:00;10.20;99.90
7762;DHT22;3925;48.636;9.516;2023-05-01T04:31:27;10.20;99.90
7762;DHT22;3925;48.636;9.516;2023-05-01T04:33:54;10.20;99.90
7762;DHT22;3925;48.636;9.516;2023-05-01T04:36:21;10.20;99.90
7762;DHT22;3925;48.636;9.516;2023-05-01T04:38:50;10.10;99.90
7762;DHT22;3925;48.636;9.516;2023-05-01T04:41:18;10.20;99.90
7762;DHT22;3925;48.636;9.516;2023-05-01T04:43:45;10.30;99.90
7762;DHT22;3925;48.636;9.516;2023-05-01T04:46:12;10.10;99.90
7762;DHT22;3925;48.636;9.516;2023-05-01T04:48:39;10.20;99.90
7762;DHT22;3925;48.636;9.516;2023-05-01T04:51:06;10.40;99.90
7762;DHT22;3925;48.636;9.516;2023-05-01T04:53:33;10.50;99.90
7762;DHT22;3925;48.636;9.516;2023-05-01T04:56:00;10.50;99.90
7762;DHT22;3925;48.636;9.516;2023-05-01T04:58:29;10.40;99.90
7762;DHT22;3925;48.636;9.516;2023-05-01T05:00:55;10.40;99.90
7762;DHT22;3925;48.636;9.516;2023-05-01T05:03:22;10.40;99.90
7762;DHT22;3925;48.636;9.516;2023-05-01T05:05:49;10.60;99.90
7762;DHT22;3925;48.636;9.516;2023-05-01T05:08:16;10.80;99.90
7762;DHT22;3925;48.636;9.516;2023-05-01T05:10:43;10.80;99.90
7762;DHT22;3925;48.636;9.516;2023-05-01T05:13:10;10.80;99.90
7762;DHT22;3925;48.636;9.516;2023-05-01T05:15:38;11.00;99.90
7762;DHT22;3925;48.636;9.516;2023-05-01T05:18:05;11.10;99.90
7762;DHT22;3925;48.636;9.516;2023-05-01T05:20:31;11.10;99.90
7762;DHT22;3925;48.636;9.516;2023-05-01T05:22:58;11.10;99.90
7762;DHT22;3925;48.636;9.516;2023-05-01T05:25:25;11.20;99.90
7762;DHT22;3925;48.636;9.516;2023-05-01T05:27:52;11.20;99.90
7762;DHT22;3925;48.636;9.516;2023-05-01T05:30:19;11.20;99.90
7762;DHT22;3925;48.636;9.516;2023-05-01T05:32:47;11.20;99.90
7762;DHT22;3925;48.636;9.516;2023-05-01T05:35:14;11.30;99.90
7762;DHT22;3925;48.636;9.516;2023-05-01T05:37:41;11.10;99.90
7762;DHT22;3925;48.636;9.516;2023-05-01T05:40:09;11.30;99.90
7762;DHT22;3925;48.636;9.516;2023-05-01T05:42:36;11.50;99.90
7762;DHT22;3925;48.636;9.516;2023-05-01T05:45:03;11.50;99.90
7762;DHT22;3925;48.636;9.516;2023-05-01T05:47:30;11.50;99.90
7762;DHT22;3925;48.636;9.516;2023-05-01T05:49:58;11.50;99.90
7762;DHT22;3925;48.636;9.516;2023-05-01T05:52:25;11.40;99.90
7762;DHT22;3925;48.636;9.516;2023-05-01T05:54:52;11.20;99.90
7762;DHT22;3925;48.636;9.516;2023-05-01T05:57:19;11.40;99.90
7762;DHT22;3925;48.636;9.516;2023-05-01T05:59:46;11.50;99.90
7762;DHT22;3925;48.636;9.516;2023-05-01T06:02:12;11.40;99.90
7762;DHT22;3925;48.636;9.516;2023-05-01T06:04:39;11.60;99.90
7762;DHT22;3925;48.636;9.516;2023-05-01T06:07:07;11.80;99.90
7762;DHT22;3925;48.636;9.516;2023-05-01T06:09:34;11.90;99.90
7762;DHT22;3925;48.636;9.516;2023-05-01T06:12:01;12.00;99.90
7762;DHT22;3925;48.636;9.516;2023-05-01T06:14:30;12.20;99.90
7762;DHT22;3925;48.636;9.516;2023-05-01T06:16:57;12.10;99.90
7762;DHT22;3925;48.636;9.516;2023-05-01T06:19:24;12.30;99.90
7762;DHT22;3925;48.636;9.516;2023-05-01T06:21:51;12.20;99.90
7762;DHT22;3925;48.636;9.516;2023-05-01T06:24:19;12.30;99.90
7762;DHT22;3925;48.636;9.516;2023-05-01T06:26:46;12.10;99.90
7762;DHT22;3925;48.636;9.516;2023-05-01T06:29:13;12.10;99.90
7762;DHT22;3925;48.636;9.516;2023-05-01T06:31:42;12.10;99.90
7762;DHT22;3925;48.636;9.516;2023-05-01T06:34:08;12.00;99.90
7762;DHT22;3925;48.636;9.516;2023-05-01T06:36:35;12.00;99.90
7762;DHT22;3925;48.636;9.516;2023-05-01T06:39:03;12.00;99.90
7762;DHT22;3925;48.636;9.516;2023-05-01T06:41:31;12.30;99.90
7762;DHT22;3925;48.636;9.516;2023-05-01T06:44:00;12.50;99.90
7762;DHT22;3925;48.636;9.516;2023-05-01T06:46:27;12.60;99.90
7762;DHT22;3925;48.636;9.516;2023-05-01T06:48:54;12.70;99.90
7762;DHT22;3925;48.636;9.516;2023-05-01T06:51:20;12.60;99.90
7762;DHT22;3925;48.636;9.516;2023-05-01T06:53:47;12.60;99.90
7762;DHT22;3925;48.636;9.516;2023-05-01T06:56:14;12.80;99.90
7762;DHT22;3925;48.636;9.516;2023-05-01T06:58:42;12.90;99.90
7762;DHT22;3925;48.636;9.516;2023-05-01T07:01:09;13.10;99.90
7762;DHT22;3925;48.636;9.516;2023-05-01T07:03:36;13.30;99.90
7762;DHT22;3925;48.636;9.516;2023-05-01T07:06:03;13.30;99.90
7762;DHT22;3925;48.636;9.516;2023-05-01T07:08:30;13.50;99.90
7762;DHT22;3925;48.636;9.516;2023-05-01T07:10:57;13.60;99.90
7762;DHT22;3925;48.636;9.516;2023-05-01T07:13:24;13.60;99.90
7762;DHT22;3925;48.636;9.516;2023-05-01T07:15:52;13.70;99.90
7762;DHT22;3925;48.636;9.516;2023-05-01T07:18:19;13.70;99.90
7762;DHT22;3925;48.636;9.516;2023-05-01T07:20:47;13.80;99.90
7762;DHT22;3925;48.636;9.516;2023-05-01T07:23:14;13.80;99.90
7762;DHT22;3925;48.636;9.516;2023-05-01T07:25:42;13.70;99.90
7762;DHT22;3925;48.636;9.516;2023-05-01T07:28:10;13.70;99.90
7762;DHT22;3925;48.636;9.516;2023-05-01T07:30:37;13.60;99.90
7762;DHT22;3925;48.636;9.516;2023-05-01T07:33:05;13.60;99.90
7762;DHT22;3925;48.636;9.516;2023-05-01T07:35:32;13.60;99.90
7762;DHT22;3925;48.636;9.516;2023-05-01T07:37:59;13.50;99.90
7762;DHT22;3925;48.636;9.516;2023-05-01T07:40:26;13.50;99.90
7762;DHT22;3925;48.636;9.516;2023-05-01T07:42:52;13.50;99.90
7762;DHT22;3925;48.636;9.516;2023-05-01T07:45:19;13.50;99.90
7762;DHT22;3925;48.636;9.516;2023-05-01T07:47:46;13.70;99.90
7762;DHT22;3925;48.636;9.516;2023-05-01T07:50:15;13.80;99.90
7762;DHT22;3925;48.636;9.516;2023-05-01T07:52:42;14.00;99.90
7762;DHT22;3925;48.636;9.516;2023-05-01T07:55:10;14.20;99.90
7762;DHT22;3925;48.636;9.516;2023-05-01T07:57:36;14.30;99.90
7762;DHT22;3925;48.636;9.516;2023-05-01T08:00:04;14.40;99.90
7762;DHT22;3925;48.636;9.516;2023-05-01T08:02:31;14.40;99.90
7762;DHT22;3925;48.636;9.516;2023-05-01T08:04:58;14.40;99.90
7762;DHT22;3925;48.636;9.516;2023-05-01T08:07:26;14.70;99.90
7762;DHT22;3925;48.636;9.516;2023-05-01T08:09:53;14.80;99.90
7762;DHT22;3925;48.636;9.516;2023-05-01T08:12:20;14.90;99.90
7762;DHT22;3925;48.636;9.516;2023-05-01T08:14:47;15.20;99.90
7762;DHT22;3925;48.636;9.516;2023-05-01T08:17:13;15.60;99.90
7762;DHT22;3925;48.636;9.516;2023-05-01T08:19:40;15.80;99.90
7762;DHT22;3925;48.636;9.516;2023-05-01T08:22:07;15.80;99.90
7762;DHT22;3925;48.636;9.516;2023-05-01T08:24:36;15.40;99.90
7762;DHT22;3925;48.636;9.516;2023-05-01T08:27:03;15.60;99.90
7762;DHT22;3925;48.636;9.516;2023-05-01T08:29:30;15.80;99.90
7762;DHT22;3925;48.636;9.516;2023-05-01T08:31:57;15.70;99.90
7762;DHT22;3925;48.636;9.516;2023-05-01T08:34:26;16.10;99.90
7762;DHT22;3925;48.636;9.516;2023-05-01T08:36:53;16.20;99.90
7762;DHT22;3925;48.636;9.516;2023-05-01T08:39:21;16.40;99.90
7762;DHT22;3925;48.636;9.516;2023-05-01T08:41:49;16.60;99.90
7762;DHT22;3925;48.636;9.516;2023-05-01T08:44:16;16.70;99.90
7762;DHT22;3925;48.636;9.516;2023-05-01T08:46:46;17.50;99.90
7762;DHT22;3925;48.636;9.516;2023-05-01T08:49:15;17.90;99.90
7762;DHT22;3925;48.636;9.516;2023-05-01T08:51:44;18.50;99.90
7762;DHT22;3925;48.636;9.516;2023-05-01T08:54:13;19.00;99.90
7762;DHT22;3925;48.636;9.516;2023-05-01T08:56:42;18.90;99.40
7762;DHT22;3925;48.636;9.516;2023-05-01T08:59:12;18.60;99.90
7762;DHT22;3925;48.636;9.516;2023-05-01T09:01:40;18.20;99.90
7762;DHT22;3925;48.636;9.516;2023-05-01T09:04:08;18.50;99.90
7762;DHT22;3925;48.636;9.516;2023-05-01T09:06:35;17.70;99.90
7762;DHT22;3925;48.636;9.516;2023-05-01T09:09:02;17.60;99.90
7762;DHT22;3925;48.636;9.516;2023-05-01T09:11:29;18.10;99.90
7762;DHT22;3925;48.636;9.516;2023-05-01T09:13:56;18.00;99.90
7762;DHT22;3925;48.636;9.516;2023-05-01T09:16:24;18.70;99.90
7762;DHT22;3925;48.636;9.516;2023-05-01T09:18:52;18.90;99.90
7762;DHT22;3925;48.636;9.516;2023-05-01T09:21:20;18.60;99.90
7762;DHT22;3925;48.636;9.516;2023-05-01T09:23:49;19.90;99.80
7762;DHT22;3925;48.636;9.516;2023-05-01T09:26:18;21.00;97.30
7762;DHT22;3925;48.636;9.516;2023-05-01T09:28:47;21.90;97.70
7762;DHT22;3925;48.636;9.516;2023-05-01T09:31:27;22.70;94.10
7762;DHT22;3925;48.636;9.516;2023-05-01T09:33:56;24.10;92.00
7762;DHT22;3925;48.636;9.516;2023-05-01T09:36:24;24.80;89.90
7762;DHT22;3925;48.636;9.516;2023-05-01T09:38:51;26.20;86.30
7762;DHT22;3925;48.636;9.516;2023-05-01T09:41:19;27.60;79.10
7762;DHT22;3925;48.636;9.516;2023-05-01T09:43:51;28.50;74.60
7762;DHT22;3925;48.636;9.516;2023-05-01T09:46:18;28.80;63.40
7762;DHT22;3925;48.636;9.516;2023-05-01T09:48:54;28.10;63.90
7762;DHT22;3925;48.636;9.516;2023-05-01T09:51:22;28.40;59.50
7762;DHT22;3925;48.636;9.516;2023-05-01T09:53:51;28.40;62.40
7762;DHT22;3925;48.636;9.516;2023-05-01T09:56:18;28.90;59.40
7762;DHT22;3925;48.636;9.516;2023-05-01T09:58:46;28.80;61.30
7762;DHT22;3925;48.636;9.516;2023-05-01T10:01:13;28.90;58.20
7762;DHT22;3925;48.636;9.516;2023-05-01T10:03:42;27.10;59.10
7762;DHT22;3925;48.636;9.516;2023-05-01T10:06:11;27.70;59.40
7762;DHT22;3925;48.636;9.516;2023-05-01T10:08:52;28.00;60.90
7762;DHT22;3925;48.636;9.516;2023-05-01T10:11:19;28.00;60.70
7762;DHT22;3925;48.636;9.516;2023-05-01T10:14:04;28.00;57.70
7762;DHT22;3925;48.636;9.516;2023-05-01T10:16:34;27.90;57.70
7762;DHT22;3925;48.636;9.516;2023-05-01T10:19:01;27.20;59.00
7762;DHT22;3925;48.636;9.516;2023-05-01T10:21:30;27.40;60.50
7762;DHT22;3925;48.636;9.516;2023-05-01T10:23:58;27.60;59.90
7762;DHT22;3925;48.636;9.516;2023-05-01T10:26:26;27.70;61.40
7762;DHT22;3925;48.636;9.516;2023-05-01T10:28:54;27.80;60.30
7762;DHT22;3925;48.636;9.516;2023-05-01T10:31:23;28.00;57.80
7762;DHT22;3925;48.636;9.516;2023-05-01T10:33:51;27.50;58.70
7762;DHT22;3925;48.636;9.516;2023-05-01T10:36:21;27.40;58.20
7762;DHT22;3925;48.636;9.516;2023-05-01T10:38:52;27.30;58.40
7762;DHT22;3925;48.636;9.516;2023-05-01T10:44:21;26.50;61.90
7762;DHT22;3925;48.636;9.516;2023-05-01T10:46:48;26.20;61.40
7762;DHT22;3925;48.636;9.516;2023-05-01T10:49:15;25.10;64.50
7762;DHT22;3925;48.636;9.516;2023-05-01T10:51:57;24.20;65.80
7762;DHT22;3925;48.636;9.516;2023-05-01T10:54:27;24.50;66.90
7762;DHT22;3925;48.636;9.516;2023-05-01T10:56:55;24.70;67.60
7762;DHT22;3925;48.636;9.516;2023-05-01T10:59:23;24.30;68.70
7762;DHT22;3925;48.636;9.516;2023-05-01T11:01:51;24.70;68.30
7762;DHT22;3925;48.636;9.516;2023-05-01T11:04:49;24.50;68.80
7762;DHT22;3925;48.636;9.516;2023-05-01T11:07:21;24.60;68.80
7762;DHT22;3925;48.636;9.516;2023-05-01T11:09:51;23.90;68.60
7762;DHT22;3925;48.636;9.516;2023-05-01T11:12:49;23.40;71.90
7762;DHT22;3925;48.636;9.516;2023-05-01T11:15:27;23.40;72.40
7762;DHT22;3925;48.636;9.516;2023-05-01T11:17:55;23.60;71.90
7762;DHT22;3925;48.636;9.516;2023-05-01T11:20:49;23.40;73.20
7762;DHT22;3925;48.636;9.516;2023-05-01T11:23:20;23.50;74.10
7762;DHT22;3925;48.636;9.516;2023-05-01T11:25:49;22.90;72.20
7762;DHT22;3925;48.636;9.516;2023-05-01T11:28:20;22.70;77.00
7762;DHT22;3925;48.636;9.516;2023-05-01T11:30:50;22.40;75.20
7762;DHT22;3925;48.636;9.516;2023-05-01T11:33:22;22.10;74.80
7762;DHT22;3925;48.636;9.516;2023-05-01T11:36:00;21.20;76.50
7762;DHT22;3925;48.636;9.516;2023-05-01T11:38:27;21.50;81.80
7762;DHT22;3925;48.636;9.516;2023-05-01T11:40:58;21.80;82.00
7762;DHT22;3925;48.636;9.516;2023-05-01T11:43:25;21.70;79.30
7762;DHT22;3925;48.636;9.516;2023-05-01T11:45:53;21.20;83.10
7762;DHT22;3925;48.636;9.516;2023-05-01T11:48:20;21.70;83.40
7762;DHT22;3925;48.636;9.516;2023-05-01T11:50:48;21.90;80.40
7762;DHT22;3925;48.636;9.516;2023-05-01T11:53:15;22.00;83.50
7762;DHT22;3925;48.636;9.516;2023-05-01T11:55:43;22.10;81.20
7762;DHT22;3925;48.636;9.516;2023-05-01T11:58:12;22.40;83.50
7762;DHT22;3925;48.636;9.516;2023-05-01T12:00:40;22.50;83.90
7762;DHT22;3925;48.636;9.516;2023-05-01T12:03:09;22.50;82.40
7762;DHT22;3925;48.636;9.516;2023-05-01T12:05:38;22.60;83.20
7762;DHT22;3925;48.636;9.516;2023-05-01T12:08:12;22.60;79.70
7762;DHT22;3925;48.636;9.516;2023-05-01T12:10:41;22.60;82.60
7762;DHT22;3925;48.636;9.516;2023-05-01T12:13:10;22.50;78.80
7762;DHT22;3925;48.636;9.516;2023-05-01T12:15:43;22.00;82.30
7762;DHT22;3925;48.636;9.516;2023-05-01T12:18:11;22.00;85.00
7762;DHT22;3925;48.636;9.516;2023-05-01T12:20:39;22.00;83.50
7762;DHT22;3925;48.636;9.516;2023-05-01T12:23:08;22.00;84.10
7762;DHT22;3925;48.636;9.516;2023-05-01T12:25:36;21.60;84.00
7762;DHT22;3925;48.636;9.516;2023-05-01T12:28:07;21.60;83.80
7762;DHT22;3925;48.636;9.516;2023-05-01T12:30:36;21.50;86.20
7762;DHT22;3925;48.636;9.516;2023-05-01T12:33:09;20.70;84.20
7762;DHT22;3925;48.636;9.516;2023-05-01T12:35:37;20.60;87.30
7762;DHT22;3925;48.636;9.516;2023-05-01T12:38:12;20.50;91.00
7762;DHT22;3925;48.636;9.516;2023-05-01T12:40:48;20.20;93.40
7762;DHT22;3925;48.636;9.516;2023-05-01T12:43:16;19.60;93.80
7762;DHT22;3925;48.636;9.516;2023-05-01T12:45:43;19.20;94.40
7762;DHT22;3925;48.636;9.516;2023-05-01T12:48:14;19.10;95.70
7762;DHT22;3925;48.636;9.516;2023-05-01T12:50:41;18.90;97.00
7762;DHT22;3925;48.636;9.516;2023-05-01T12:53:09;18.80;97.10
7762;DHT22;3925;48.636;9.516;2023-05-01T12:55:44;18.70;98.20
7762;DHT22;3925;48.636;9.516;2023-05-01T12:58:12;19.10;99.00
7762;DHT22;3925;48.636;9.516;2023-05-01T13:00:43;19.30;99.90
7762;DHT22;3925;48.636;9.516;2023-05-01T13:03:10;19.80;99.30
7762;DHT22;3925;48.636;9.516;2023-05-01T13:05:53;20.30;96.80
7762;DHT22;3925;48.636;9.516;2023-05-01T13:08:31;20.80;95.20
7762;DHT22;3925;48.636;9.516;2023-05-01T13:10:59;21.00;95.00
7762;DHT22;3925;48.636;9.516;2023-05-01T13:13:27;21.40;95.60
7762;DHT22;3925;48.636;9.516;2023-05-01T13:16:03;21.70;93.90
7762;DHT22;3925;48.636;9.516;2023-05-01T13:18:31;21.60;92.30
7762;DHT22;3925;48.636;9.516;2023-05-01T13:21:07;21.40;92.50
7762;DHT22;3925;48.636;9.516;2023-05-01T13:23:36;21.70;92.70
7762;DHT22;3925;48.636;9.516;2023-05-01T13:26:04;21.40;91.80
7762;DHT22;3925;48.636;9.516;2023-05-01T13:28:33;21.80;91.50
7762;DHT22;3925;48.636;9.516;2023-05-01T13:31:00;22.20;91.90
7762;DHT22;3925;48.636;9.516;2023-05-01T13:33:30;22.30;92.00
7762;DHT22;3925;48.636;9.516;2023-05-01T13:35:57;22.30;90.90
7762;DHT22;3925;48.636;9.516;2023-05-01T13:38:25;22.60;90.80
7762;DHT22;3925;48.636;9.516;2023-05-01T13:40:52;22.60;91.50
7762;DHT22;3925;48.636;9.516;2023-05-01T13:43:18;22.40;91.40
7762;DHT22;3925;48.636;9.516;2023-05-01T13:45:46;22.70;90.90
7762;DHT22;3925;48.636;9.516;2023-05-01T13:48:15;22.60;89.60
7762;DHT22;3925;48.636;9.516;2023-05-01T13:50:43;22.30;88.10
7762;DHT22;3925;48.636;9.516;2023-05-01T13:53:09;22.00;89.50
7762;DHT22;3925;48.636;9.516;2023-05-01T13:55:39;21.60;89.60
7762;DHT22;3925;48.636;9.516;2023-05-01T13:58:07;21.10;90.10
7762;DHT22;3925;48.636;9.516;2023-05-01T14:00:34;20.70;90.70
7762;DHT22;3925;48.636;9.516;2023-05-01T14:03:01;20.90;92.00
7762;DHT22;3925;48.636;9.516;2023-05-01T14:05:27;20.70;91.90
7762;DHT22;3925;48.636;9.516;2023-05-01T14:07:56;20.50;92.00
7762;DHT22;3925;48.636;9.516;2023-05-01T14:10:25;20.20;92.00
7762;DHT22;3925;48.636;9.516;2023-05-01T14:12:55;20.10;91.90
7762;DHT22;3925;48.636;9.516;2023-05-01T14:15:23;20.20;92.60
7762;DHT22;3925;48.636;9.516;2023-05-01T14:17:50;20.00;92.70
7762;DHT22;3925;48.636;9.516;2023-05-01T14:20:17;19.70;92.90
7762;DHT22;3925;48.636;9.516;2023-05-01T14:22:45;19.40;93.30
7762;DHT22;3925;48.636;9.516;2023-05-01T14:25:22;19.30;93.20
7762;DHT22;3925;48.636;9.516;2023-05-01T14:27:50;19.00;93.70
7762;DHT22;3925;48.636;9.516;2023-05-01T14:30:27;18.70;94.80
7762;DHT22;3925;48.636;9.516;2023-05-01T14:32:55;18.10;95.60
7762;DHT22;3925;48.636;9.516;2023-05-01T14:35:23;17.80;97.60
7762;DHT22;3925;48.636;9.516;2023-05-01T14:37:50;17.50;99.90
7762;DHT22;3925;48.636;9.516;2023-05-01T14:40:18;17.20;99.90
7762;DHT22;3925;48.636;9.516;2023-05-01T14:42:49;17.00;99.90
7762;DHT22;3925;48.636;9.516;2023-05-01T14:45:16;16.80;99.90
7762;DHT22;3925;48.636;9.516;2023-05-01T14:47:46;16.50;99.90
7762;DHT22;3925;48.636;9.516;2023-05-01T14:50:18;16.30;99.90
7762;DHT22;3925;48.636;9.516;2023-05-01T14:52:46;16.20;99.90
7762;DHT22;3925;48.636;9.516;2023-05-01T14:55:14;16.00;99.90
7762;DHT22;3925;48.636;9.516;2023-05-01T14:57:43;15.80;99.90
7762;DHT22;3925;48.636;9.516;2023-05-01T15:00:12;15.60;99.90
7762;DHT22;3925;48.636;9.516;2023-05-01T15:02:39;15.40;99.90
7762;DHT22;3925;48.636;9.516;2023-05-01T15:05:08;15.10;99.90
7762;DHT22;3925;48.636;9.516;2023-05-01T15:07:35;14.80;99.90
7762;DHT22;3925;48.636;9.516;2023-05-01T15:10:02;14.70;99.90
7762;DHT22;3925;48.636;9.516;2023-05-01T15:12:29;14.60;99.90
7762;DHT22;3925;48.636;9.516;2023-05-01T15:14:56;14.60;99.90
7762;DHT22;3925;48.636;9.516;2023-05-01T15:17:23;14.60;99.90
7762;DHT22;3925;48.636;9.516;2023-05-01T15:19:49;14.40;99.90
7762;DHT22;3925;48.636;9.516;2023-05-01T15:22:18;14.30;99.90
7762;DHT22;3925;48.636;9.516;2023-05-01T15:24:44;14.40;99.90
7762;DHT22;3925;48.636;9.516;2023-05-01T15:27:11;14.30;99.90
7762;DHT22;3925;48.636;9.516;2023-05-01T15:29:38;14.40;99.90
7762;DHT22;3925;48.636;9.516;2023-05-01T15:32:05;14.30;99.90
7762;DHT22;3925;48.636;9.516;2023-05-01T15:34:32;14.20;99.90
7762;DHT22;3925;48.636;9.516;2023-05-01T15:36:59;14.30;99.90
7762;DHT22;3925;48.636;9.516;2023-05-01T15:39:27;14.20;99.90
7762;DHT22;3925;48.636;9.516;2023-05-01T15:41:54;14.30;99.90
7762;DHT22;3925;48.636;9.516;2023-05-01T15:44:21;14.50;99.90
7762;DHT22;3925;48.636;9.516;2023-05-01T15:46:48;14.60;99.90
7762;DHT22;3925;48.636;9.516;2023-05-01T15:49:15;14.80;99.90
7762;DHT22;3925;48.636;9.516;2023-05-01T15:51:42;14.90;99.90
7762;DHT22;3925;48.636;9.516;2023-05-01T15:54:09;14.90;99.90
7762;DHT22;3925;48.636;9.516;2023-05-01T15:56:38;14.90;99.90
7762;DHT22;3925;48.636;9.516;2023-05-01T15:59:06;14.80;99.90
7762;DHT22;3925;48.636;9.516;2023-05-01T16:01:34;14.90;99.90
7762;DHT22;3925;48.636;9.516;2023-05-01T16:04:02;15.00;99.90
7762;DHT22;3925;48.636;9.516;2023-05-01T16:06:29;15.30;99.90
7762;DHT22;3925;48.636;9.516;2023-05-01T16:08:56;15.20;99.90
7762;DHT22;3925;48.636;9.516;2023-05-01T16:11:23;15.10;99.90
7762;DHT22;3925;48.636;9.516;2023-05-01T16:13:52;15.10;99.90
7762;DHT22;3925;48.636;9.516;2023-05-01T16:16:22;15.00;99.90
7762;DHT22;3925;48.636;9.516;2023-05-01T16:18:52;14.90;99.90